createdAt,value
2022-11-29T00:00:43.239Z,0.00
2022-11-29T00:01:43.284Z,0.00
2022-11-29T00:02:43.391Z,0.00
2022-11-29T00:03:43.221Z,0.00
2022-11-29T00:04:43.589Z,0.00
2022-11-29T00:05:43.181Z,0.00
2022-11-29T00:06:43.177Z,0.00
2022-11-29T00:07:43.205Z,0.00
2022-11-29T00:08:43.171Z,0.00
2022-11-29T00:09:43.160Z,0.00
2022-11-29T00:10:43.135Z,0.00
2022-11-29T00:11:43.275Z,0.00
2022-11-29T00:12:43.123Z,0.00
2022-11-29T00:13:43.168Z,0.00
2022-11-29T00:14:43.387Z,0.00
2022-11-29T00:15:43.094Z,0.00
2022-11-29T00:16:43.215Z,0.00
2022-11-29T00:17:43.061Z,0.00
2022-11-29T00:18:43.054Z,0.00
2022-11-29T00:19:43.071Z,0.00
2022-11-29T00:20:43.043Z,0.00
2022-11-29T00:21:43.019Z,0.00
2022-11-29T00:22:43.038Z,0.00
2022-11-29T00:23:43.001Z,0.00
2022-11-29T00:24:43.294Z,0.00
2022-11-29T00:25:42.989Z,0.00
2022-11-29T00:26:42.980Z,0.00
2022-11-29T00:27:43.082Z,0.00
2022-11-29T00:28:42.979Z,0.00
2022-11-29T00:29:42.942Z,0.00
2022-11-29T00:30:42.972Z,0.00
2022-11-29T00:31:42.940Z,0.00
2022-11-29T00:32:42.979Z,0.00
2022-11-29T00:33:42.923Z,0.00
2022-11-29T00:34:43.154Z,0.00
2022-11-29T00:35:42.899Z,0.00
2022-11-29T00:36:42.905Z,0.00
2022-11-29T00:37:42.895Z,0.00
2022-11-29T00:38:42.871Z,0.00
2022-11-29T00:39:42.860Z,0.00
2022-11-29T00:40:42.856Z,0.00
2022-11-29T00:41:42.853Z,0.00
2022-11-29T00:42:42.847Z,0.00
2022-11-29T00:43:42.803Z,0.00
2022-11-29T00:44:43.074Z,0.00
2022-11-29T00:45:42.826Z,0.00
2022-11-29T00:46:42.787Z,0.00
2022-11-29T00:47:42.796Z,0.00
2022-11-29T00:48:42.799Z,0.00
2022-11-29T00:49:42.772Z,0.00
2022-11-29T00:50:42.745Z,0.00
2022-11-29T00:51:42.746Z,0.00
2022-11-29T00:52:42.725Z,0.00
2022-11-29T00:53:42.757Z,0.00
2022-11-29T00:54:43.188Z,0.00
2022-11-29T00:55:42.691Z,0.00
2022-11-29T00:56:42.678Z,0.00
2022-11-29T00:57:42.666Z,0.00
2022-11-29T00:58:42.714Z,0.00
2022-11-29T00:59:42.663Z,0.00
2022-11-29T01:00:42.655Z,0.00
2022-11-29T01:01:42.679Z,0.00
2022-11-29T01:02:42.696Z,0.00
2022-11-29T01:03:42.648Z,0.00
2022-11-29T01:04:43.010Z,0.00
2022-11-29T01:05:42.605Z,0.00
2022-11-29T01:06:42.603Z,0.00
2022-11-29T01:07:42.627Z,0.00
2022-11-29T01:08:42.561Z,0.00
2022-11-29T01:09:42.588Z,0.00
2022-11-29T01:10:42.570Z,0.00
2022-11-29T01:11:42.542Z,0.00
2022-11-29T01:12:42.544Z,0.00
2022-11-29T01:13:42.516Z,0.00
2022-11-29T01:14:42.920Z,0.00
2022-11-29T01:15:42.496Z,0.00
2022-11-29T01:16:42.573Z,0.00
2022-11-29T01:17:42.482Z,0.00
2022-11-29T01:18:42.512Z,0.00
2022-11-29T01:19:47.866Z,0.00
2022-11-29T01:20:42.507Z,0.00
2022-11-29T01:21:42.516Z,0.00
2022-11-29T01:22:42.445Z,0.00
2022-11-29T01:23:42.477Z,0.00
2022-11-29T01:24:42.806Z,0.00
2022-11-29T01:25:42.394Z,0.00
2022-11-29T01:26:42.406Z,0.00
2022-11-29T01:27:42.373Z,0.00
2022-11-29T01:28:42.372Z,0.00
2022-11-29T01:29:42.424Z,0.00
2022-11-29T01:30:42.427Z,0.00
2022-11-29T01:31:42.337Z,0.00
2022-11-29T01:32:42.388Z,0.00
2022-11-29T01:33:42.355Z,0.00
2022-11-29T01:34:42.893Z,0.00
2022-11-29T01:35:42.317Z,0.00
2022-11-29T01:36:42.315Z,0.00
2022-11-29T01:37:42.323Z,0.00
2022-11-29T01:38:42.286Z,0.00
2022-11-29T01:39:42.289Z,0.00
2022-11-29T01:40:42.264Z,0.00
2022-11-29T01:41:42.268Z,0.00
2022-11-29T01:42:42.234Z,0.00
2022-11-29T01:43:42.226Z,0.00
2022-11-29T01:44:42.681Z,0.00
2022-11-29T01:45:42.296Z,0.00
2022-11-29T01:46:42.189Z,0.00
2022-11-29T01:47:42.234Z,0.00
2022-11-29T01:48:42.192Z,0.00
2022-11-29T01:49:42.201Z,0.00
2022-11-29T01:50:42.165Z,0.00
2022-11-29T01:51:42.172Z,0.00
2022-11-29T01:52:42.158Z,0.00
2022-11-29T01:53:42.169Z,0.00
2022-11-29T01:54:42.488Z,0.00
2022-11-29T01:55:42.149Z,0.00
2022-11-29T01:56:42.193Z,0.00
2022-11-29T01:57:42.109Z,0.00
2022-11-29T01:58:42.083Z,0.00
2022-11-29T01:59:42.072Z,0.00
2022-11-29T02:00:42.060Z,0.00
2022-11-29T02:01:42.154Z,0.00
2022-11-29T02:02:42.101Z,0.00
2022-11-29T02:03:42.031Z,0.00
2022-11-29T02:04:42.253Z,0.00
2022-11-29T02:05:42.039Z,0.00
2022-11-29T02:06:41.995Z,0.00
2022-11-29T02:07:42.065Z,0.00
2022-11-29T02:08:41.987Z,0.00
2022-11-29T02:09:41.971Z,0.00
2022-11-29T02:10:41.993Z,0.00
2022-11-29T02:11:41.972Z,0.00
2022-11-29T02:12:41.951Z,0.00
2022-11-29T02:13:41.945Z,0.00
2022-11-29T02:14:42.071Z,0.00
2022-11-29T02:15:41.943Z,0.00
2022-11-29T02:16:41.942Z,0.00
2022-11-29T02:17:41.884Z,0.00
2022-11-29T02:18:41.883Z,0.00
2022-11-29T02:19:41.865Z,0.00
2022-11-29T02:20:41.884Z,0.00
2022-11-29T02:21:41.873Z,0.00
2022-11-29T02:22:41.857Z,0.00
2022-11-29T02:23:41.838Z,0.00
2022-11-29T02:24:42.136Z,0.00
2022-11-29T02:25:41.816Z,0.00
2022-11-29T02:26:41.826Z,0.00
2022-11-29T02:27:41.785Z,0.00
2022-11-29T02:28:41.785Z,0.00
2022-11-29T02:29:41.799Z,0.00
2022-11-29T02:30:41.846Z,0.00
2022-11-29T02:31:41.767Z,0.00
2022-11-29T02:32:41.738Z,0.00
2022-11-29T02:33:41.756Z,0.00
2022-11-29T02:34:41.892Z,0.00
2022-11-29T02:35:41.747Z,0.00
2022-11-29T02:36:41.729Z,0.00
2022-11-29T02:37:41.736Z,0.00
2022-11-29T02:38:41.700Z,0.00
2022-11-29T02:39:41.708Z,0.00
2022-11-29T02:40:41.682Z,0.00
2022-11-29T02:41:41.672Z,0.00
2022-11-29T02:42:41.631Z,0.00
2022-11-29T02:43:41.637Z,0.00
2022-11-29T02:44:41.703Z,0.00
2022-11-29T02:45:41.655Z,0.00
2022-11-29T02:46:41.632Z,0.00
2022-11-29T02:47:41.614Z,0.00
2022-11-29T02:48:41.590Z,0.00
2022-11-29T02:49:41.682Z,0.00
2022-11-29T02:50:41.580Z,0.00
2022-11-29T02:51:41.650Z,0.00
2022-11-29T02:52:41.708Z,0.00
2022-11-29T02:53:41.538Z,0.00
2022-11-29T02:54:41.544Z,0.00
2022-11-29T02:55:41.563Z,0.00
2022-11-29T02:56:41.608Z,0.00
2022-11-29T02:57:41.497Z,0.00
2022-11-29T02:58:41.491Z,0.00
2022-11-29T02:59:41.486Z,0.00
2022-11-29T03:00:41.519Z,0.00
2022-11-29T03:01:41.539Z,0.00
2022-11-29T03:02:41.483Z,0.00
2022-11-29T03:03:41.431Z,0.00
2022-11-29T03:04:41.540Z,0.00
2022-11-29T03:05:41.457Z,0.00
2022-11-29T03:06:41.450Z,0.00
2022-11-29T03:07:41.488Z,0.00
2022-11-29T03:08:41.385Z,0.00
2022-11-29T03:09:41.388Z,0.00
2022-11-29T03:10:41.354Z,0.00
2022-11-29T03:11:41.389Z,0.00
2022-11-29T03:12:41.339Z,0.00
2022-11-29T03:13:41.354Z,0.00
2022-11-29T03:14:41.360Z,0.00
2022-11-29T03:15:41.354Z,0.00
2022-11-29T03:16:43.216Z,0.00
2022-11-29T03:17:41.334Z,0.00
2022-11-29T03:18:41.329Z,0.00
2022-11-29T03:19:41.267Z,0.00
2022-11-29T03:20:41.259Z,0.00
2022-11-29T03:21:41.263Z,0.00
2022-11-29T03:22:41.309Z,0.00
2022-11-29T03:23:41.305Z,0.00
2022-11-29T03:24:41.222Z,0.00
2022-11-29T03:25:41.254Z,0.00
2022-11-29T03:26:41.209Z,0.00
2022-11-29T03:27:41.204Z,0.00
2022-11-29T03:28:41.198Z,0.00
2022-11-29T03:29:41.229Z,0.00
2022-11-29T03:30:41.315Z,0.00
2022-11-29T03:31:41.163Z,0.00
2022-11-29T03:32:41.154Z,0.00
2022-11-29T03:33:41.156Z,0.00
2022-11-29T03:34:41.120Z,0.00
2022-11-29T03:35:41.155Z,0.00
2022-11-29T03:36:41.130Z,0.00
2022-11-29T03:37:41.164Z,0.00
2022-11-29T03:38:41.111Z,0.00
2022-11-29T03:39:41.071Z,0.00
2022-11-29T03:40:41.083Z,0.00
2022-11-29T03:41:41.060Z,0.00
2022-11-29T03:42:41.064Z,0.00
2022-11-29T03:43:41.062Z,0.00
2022-11-29T03:44:41.041Z,0.00
2022-11-29T03:45:41.036Z,0.00
2022-11-29T03:46:41.102Z,0.00
2022-11-29T03:47:41.005Z,0.00
2022-11-29T03:48:41.013Z,0.00
2022-11-29T03:49:40.990Z,0.00
2022-11-29T03:50:40.975Z,0.00
2022-11-29T03:51:40.961Z,0.00
2022-11-29T03:52:40.957Z,0.00
2022-11-29T03:53:40.940Z,0.00
2022-11-29T03:54:40.969Z,0.00
2022-11-29T03:55:40.911Z,0.00
2022-11-29T03:56:40.932Z,0.00
2022-11-29T03:57:40.891Z,0.00
2022-11-29T03:58:40.886Z,0.00
2022-11-29T03:59:40.915Z,0.00
2022-11-29T04:00:40.869Z,0.00
2022-11-29T04:01:40.945Z,0.00
2022-11-29T04:02:40.908Z,0.00
2022-11-29T04:03:40.858Z,0.00
2022-11-29T04:04:40.831Z,0.00
2022-11-29T04:05:40.816Z,0.00
2022-11-29T04:06:40.801Z,0.00
2022-11-29T04:07:40.857Z,0.00
2022-11-29T04:08:40.784Z,0.00
2022-11-29T04:09:40.773Z,0.00
2022-11-29T04:10:40.757Z,0.00
2022-11-29T04:11:40.755Z,0.00
2022-11-29T04:12:40.762Z,0.00
2022-11-29T04:13:40.734Z,0.00
2022-11-29T04:14:40.732Z,0.00
2022-11-29T04:15:40.771Z,0.00
2022-11-29T04:16:40.710Z,0.00
2022-11-29T04:17:40.729Z,0.00
2022-11-29T04:18:40.685Z,0.00
2022-11-29T04:19:40.681Z,0.00
2022-11-29T04:20:44.212Z,0.00
2022-11-29T04:21:40.665Z,0.00
2022-11-29T04:22:40.652Z,0.00
2022-11-29T04:23:40.659Z,0.00
2022-11-29T04:24:40.626Z,0.00
2022-11-29T04:25:40.639Z,0.00
2022-11-29T04:26:40.649Z,0.00
2022-11-29T04:27:40.609Z,0.00
2022-11-29T04:28:40.583Z,0.00
2022-11-29T04:29:40.585Z,0.00
2022-11-29T04:30:40.560Z,0.00
2022-11-29T04:31:40.609Z,0.00
2022-11-29T04:32:40.556Z,0.00
2022-11-29T04:33:40.572Z,0.00
2022-11-29T04:34:40.539Z,0.00
2022-11-29T04:35:40.513Z,0.00
2022-11-29T04:36:40.530Z,0.00
2022-11-29T04:37:40.503Z,0.00
2022-11-29T04:38:40.491Z,0.00
2022-11-29T04:39:40.505Z,0.00
2022-11-29T04:40:40.498Z,0.00
2022-11-29T04:41:40.461Z,0.00
2022-11-29T04:42:40.458Z,0.00
2022-11-29T04:43:40.443Z,0.00
2022-11-29T04:44:40.428Z,0.00
2022-11-29T04:45:40.441Z,0.00
2022-11-29T04:46:40.418Z,0.00
2022-11-29T04:47:40.427Z,0.00
2022-11-29T04:48:40.450Z,0.00
2022-11-29T04:49:40.381Z,0.00
2022-11-29T04:50:40.494Z,0.00
2022-11-29T04:51:40.358Z,0.00
2022-11-29T04:52:40.366Z,0.00
2022-11-29T04:53:40.345Z,0.00
2022-11-29T04:54:40.356Z,0.00
2022-11-29T04:55:40.358Z,0.00
2022-11-29T04:56:40.342Z,0.00
2022-11-29T04:57:40.313Z,0.00
2022-11-29T04:58:40.287Z,0.00
2022-11-29T04:59:40.294Z,0.00
2022-11-29T05:00:40.285Z,0.00
2022-11-29T05:01:40.277Z,0.00
2022-11-29T05:02:40.304Z,0.00
2022-11-29T05:03:40.236Z,0.00
2022-11-29T05:04:40.233Z,0.00
2022-11-29T05:05:40.271Z,0.00
2022-11-29T05:06:40.224Z,0.00
2022-11-29T05:07:40.278Z,0.00
2022-11-29T05:08:40.236Z,0.00
2022-11-29T05:09:40.257Z,0.00
2022-11-29T05:10:40.194Z,0.00
2022-11-29T05:11:40.161Z,0.00
2022-11-29T05:12:40.161Z,0.00
2022-11-29T05:13:40.194Z,0.00
2022-11-29T05:14:40.119Z,0.00
2022-11-29T05:15:40.195Z,0.00
2022-11-29T05:16:40.110Z,0.00
2022-11-29T05:17:40.117Z,0.00
2022-11-29T05:18:40.087Z,0.00
2022-11-29T05:19:40.088Z,0.00
2022-11-29T05:20:40.063Z,0.00
2022-11-29T05:21:40.076Z,0.00
2022-11-29T05:22:40.090Z,0.00
2022-11-29T05:23:39.999Z,1.00
2022-11-29T05:24:40.037Z,0.00
2022-11-29T05:25:40.026Z,0.00
2022-11-29T05:26:40.010Z,0.00
2022-11-29T05:27:40.021Z,0.00
2022-11-29T05:28:40.028Z,0.00
2022-11-29T05:29:39.981Z,0.00
2022-11-29T05:30:40.000Z,0.00
2022-11-29T05:31:39.977Z,0.00
2022-11-29T05:32:39.943Z,0.00
2022-11-29T05:33:39.938Z,0.00
2022-11-29T05:34:39.944Z,0.00
2022-11-29T05:35:39.966Z,0.00
2022-11-29T05:36:39.938Z,0.00
2022-11-29T05:37:39.919Z,0.00
2022-11-29T05:38:39.915Z,0.00
2022-11-29T05:39:39.934Z,0.00
2022-11-29T05:40:39.887Z,0.00
2022-11-29T05:41:39.868Z,0.00
2022-11-29T05:42:39.852Z,0.00
2022-11-29T05:43:39.884Z,0.00
2022-11-29T05:44:39.852Z,0.00
2022-11-29T05:45:39.833Z,0.00
2022-11-29T05:46:39.863Z,0.00
2022-11-29T05:47:39.836Z,0.00
2022-11-29T05:48:39.772Z,1.00
2022-11-29T05:49:39.819Z,0.00
2022-11-29T05:50:39.768Z,0.00
2022-11-29T05:51:39.764Z,0.00
2022-11-29T05:52:39.809Z,0.00
2022-11-29T05:53:39.694Z,1.00
2022-11-29T05:54:39.734Z,0.00
2022-11-29T05:55:39.684Z,1.00
2022-11-29T05:56:39.750Z,0.00
2022-11-29T05:57:39.744Z,0.00
2022-11-29T05:58:39.691Z,0.00
2022-11-29T05:59:39.744Z,0.00
2022-11-29T06:00:39.757Z,0.00
2022-11-29T06:01:39.720Z,0.00
2022-11-29T06:02:39.714Z,0.00
2022-11-29T06:03:39.696Z,0.00
2022-11-29T06:04:39.643Z,0.00
2022-11-29T06:05:39.627Z,0.00
2022-11-29T06:06:39.654Z,0.00
2022-11-29T06:07:39.583Z,1.00
2022-11-29T06:08:39.619Z,0.00
2022-11-29T06:09:39.593Z,0.00
2022-11-29T06:10:39.537Z,1.00
2022-11-29T06:11:39.638Z,0.00
2022-11-29T06:12:39.626Z,0.00
2022-11-29T06:13:39.555Z,0.00
2022-11-29T06:14:39.559Z,0.00
2022-11-29T06:15:39.525Z,0.00
2022-11-29T06:16:39.516Z,0.00
2022-11-29T06:17:39.635Z,0.00
2022-11-29T06:18:39.545Z,0.00
2022-11-29T06:19:39.450Z,1.00
2022-11-29T06:20:39.468Z,0.00
2022-11-29T06:21:39.478Z,0.00
2022-11-29T06:22:39.481Z,0.00
2022-11-29T06:23:39.446Z,0.00
2022-11-29T06:24:39.443Z,0.00
2022-11-29T06:25:39.430Z,0.00
2022-11-29T06:26:39.363Z,1.00
2022-11-29T06:27:39.425Z,0.00
2022-11-29T06:28:39.423Z,0.00
2022-11-29T06:29:39.358Z,1.00
2022-11-29T06:30:39.384Z,0.00
2022-11-29T06:31:39.370Z,1.00
2022-11-29T06:32:39.399Z,0.00
2022-11-29T06:33:39.352Z,0.00
2022-11-29T06:34:39.359Z,0.00
2022-11-29T06:35:39.359Z,0.00
2022-11-29T06:36:39.280Z,1.00
2022-11-29T06:37:39.285Z,1.00
2022-11-29T06:38:39.292Z,1.00
2022-11-29T06:39:39.326Z,0.00
2022-11-29T06:40:39.346Z,0.00
2022-11-29T06:41:39.339Z,2.00
2022-11-29T06:42:39.275Z,1.00
2022-11-29T06:43:39.260Z,1.00
2022-11-29T06:44:39.244Z,0.00
2022-11-29T06:45:39.195Z,2.00
2022-11-29T06:46:39.241Z,2.00
2022-11-29T06:47:39.183Z,5.00
2022-11-29T06:48:39.201Z,5.00
2022-11-29T06:49:39.125Z,6.00
2022-11-29T06:50:39.129Z,10.00
2022-11-29T06:51:39.130Z,10.00
2022-11-29T06:52:39.135Z,9.00
2022-11-29T06:53:39.122Z,7.00
2022-11-29T06:54:39.114Z,11.00
2022-11-29T06:55:39.081Z,10.00
2022-11-29T06:56:40.921Z,11.00
2022-11-29T06:57:39.096Z,8.00
2022-11-29T06:58:39.108Z,9.00
2022-11-29T06:59:39.864Z,11.00
2022-11-29T07:00:39.860Z,19.00
2022-11-29T07:01:39.077Z,18.00
2022-11-29T07:02:39.842Z,20.00
2022-11-29T07:03:39.210Z,21.00
2022-11-29T07:04:45.386Z,22.00
2022-11-29T07:05:38.983Z,23.00
2022-11-29T07:06:39.683Z,21.00
2022-11-29T07:07:38.991Z,22.00
2022-11-29T07:08:38.967Z,22.00
2022-11-29T07:09:38.970Z,25.00
2022-11-29T07:10:38.944Z,27.00
2022-11-29T07:11:38.951Z,24.00
2022-11-29T07:12:38.917Z,27.00
2022-11-29T07:13:38.895Z,24.00
2022-11-29T07:14:38.910Z,32.00
2022-11-29T07:15:38.937Z,28.00
2022-11-29T07:16:38.946Z,29.00
2022-11-29T07:17:38.868Z,38.00
2022-11-29T07:18:38.859Z,32.00
2022-11-29T07:19:38.834Z,32.00
2022-11-29T07:20:38.837Z,39.00
2022-11-29T07:21:38.881Z,39.00
2022-11-29T07:22:38.834Z,44.00
2022-11-29T07:23:38.819Z,46.00
2022-11-29T07:24:38.808Z,49.00
2022-11-29T07:25:38.779Z,50.00
2022-11-29T07:26:38.805Z,53.00
2022-11-29T07:27:38.781Z,59.00
2022-11-29T07:28:38.751Z,62.00
2022-11-29T07:29:38.760Z,64.00
2022-11-29T07:30:38.734Z,68.00
2022-11-29T07:31:38.760Z,66.00
2022-11-29T07:32:38.715Z,63.00
2022-11-29T07:33:38.705Z,71.00
2022-11-29T07:34:38.730Z,69.00
2022-11-29T07:35:38.730Z,70.00
2022-11-29T07:36:38.742Z,69.00
2022-11-29T07:37:38.679Z,67.00
2022-11-29T07:38:38.657Z,69.00
2022-11-29T07:39:39.322Z,71.00
2022-11-29T07:40:38.650Z,68.00
2022-11-29T07:41:38.661Z,67.00
2022-11-29T07:42:39.401Z,65.00
2022-11-29T07:43:38.599Z,67.00
2022-11-29T07:44:38.634Z,69.00
2022-11-29T07:45:38.640Z,71.00
2022-11-29T07:46:38.633Z,70.00
2022-11-29T07:47:38.609Z,63.00
2022-11-29T07:48:38.594Z,61.00
2022-11-29T07:49:38.751Z,65.00
2022-11-29T07:50:39.351Z,69.00
2022-11-29T07:51:38.524Z,74.00
2022-11-29T07:52:38.556Z,76.00
2022-11-29T07:53:38.499Z,68.00
2022-11-29T07:54:38.509Z,60.00
2022-11-29T07:55:38.482Z,61.00
2022-11-29T07:56:38.484Z,65.00
2022-11-29T07:57:38.490Z,66.00
2022-11-29T07:58:38.510Z,67.00
2022-11-29T07:59:39.323Z,71.00
2022-11-29T08:00:38.530Z,77.00
2022-11-29T08:01:38.520Z,87.00
2022-11-29T08:02:38.561Z,87.00
2022-11-29T08:03:38.901Z,85.00
2022-11-29T08:04:38.403Z,84.00
2022-11-29T08:05:38.431Z,85.00
2022-11-29T08:06:38.399Z,88.00
2022-11-29T08:07:38.427Z,88.00
2022-11-29T08:08:43.718Z,99.00
2022-11-29T08:09:38.352Z,95.00
2022-11-29T08:10:38.344Z,97.00
2022-11-29T08:11:38.345Z,96.00
2022-11-29T08:12:38.357Z,102.00
2022-11-29T08:13:38.367Z,115.00
2022-11-29T08:14:38.373Z,120.00
2022-11-29T08:15:38.344Z,119.00
2022-11-29T08:16:38.325Z,129.00
2022-11-29T08:17:38.310Z,131.00
2022-11-29T08:18:38.848Z,127.00
2022-11-29T08:19:38.303Z,130.00
2022-11-29T08:20:39.139Z,117.00
2022-11-29T08:21:38.258Z,120.00
2022-11-29T08:22:38.294Z,120.00
2022-11-29T08:23:38.253Z,124.00
2022-11-29T08:24:38.255Z,129.00
2022-11-29T08:25:38.246Z,130.00
2022-11-29T08:26:38.206Z,127.00
2022-11-29T08:27:38.170Z,124.00
2022-11-29T08:28:38.174Z,126.00
2022-11-29T08:29:38.441Z,120.00
2022-11-29T08:30:38.184Z,120.00
2022-11-29T08:31:38.284Z,123.00
2022-11-29T08:32:38.170Z,140.00
2022-11-29T08:33:38.119Z,163.00
2022-11-29T08:34:38.170Z,162.00
2022-11-29T08:35:38.107Z,159.00
2022-11-29T08:36:38.145Z,149.00
2022-11-29T08:37:38.149Z,144.00
2022-11-29T08:38:38.364Z,134.00
2022-11-29T08:39:38.864Z,134.00
2022-11-29T08:40:38.061Z,134.00
2022-11-29T08:41:38.056Z,136.00
2022-11-29T08:42:38.031Z,128.00
2022-11-29T08:43:38.021Z,123.00
2022-11-29T08:44:38.044Z,119.00
2022-11-29T08:45:38.060Z,121.00
2022-11-29T08:46:38.056Z,122.00
2022-11-29T08:47:38.026Z,114.00
2022-11-29T08:48:37.998Z,112.00
2022-11-29T08:49:37.985Z,111.00
2022-11-29T08:50:38.066Z,117.00
2022-11-29T08:51:40.205Z,122.00
2022-11-29T08:52:38.576Z,136.00
2022-11-29T08:53:38.442Z,143.00
2022-11-29T08:54:37.919Z,150.00
2022-11-29T08:55:37.962Z,150.00
2022-11-29T08:57:40.277Z,147.00
2022-11-29T08:58:37.871Z,149.00
2022-11-29T08:59:37.886Z,149.00
2022-11-29T09:00:37.870Z,137.00
2022-11-29T09:01:37.877Z,134.00
2022-11-29T09:02:37.905Z,133.00
2022-11-29T09:03:37.827Z,136.00
2022-11-29T09:04:37.856Z,139.00
2022-11-29T09:05:37.806Z,142.00
2022-11-29T09:06:37.846Z,143.00
2022-11-29T09:07:37.830Z,144.00
2022-11-29T09:08:37.797Z,147.00
2022-11-29T09:09:48.429Z,146.00
2022-11-29T09:10:39.424Z,145.00
2022-11-29T09:11:37.755Z,137.00
2022-11-29T09:12:37.877Z,139.00
2022-11-29T09:13:39.115Z,135.00
2022-11-29T09:14:37.761Z,134.00
2022-11-29T09:15:37.724Z,138.00
2022-11-29T09:16:37.829Z,150.00
2022-11-29T09:17:37.740Z,151.00
2022-11-29T09:18:38.466Z,150.00
2022-11-29T09:19:37.677Z,152.00
2022-11-29T09:20:37.910Z,160.00
2022-11-29T09:21:37.758Z,168.00
2022-11-29T09:22:37.714Z,180.00
2022-11-29T09:23:37.759Z,180.00
2022-11-29T09:24:37.626Z,177.00
2022-11-29T09:25:37.615Z,178.00
2022-11-29T09:26:37.607Z,186.00
2022-11-29T09:27:37.601Z,188.00
2022-11-29T09:28:37.625Z,182.00
2022-11-29T09:29:39.401Z,183.00
2022-11-29T09:30:37.660Z,181.00
2022-11-29T09:31:37.635Z,180.00
2022-11-29T09:32:37.887Z,174.00
2022-11-29T09:33:37.606Z,171.00
2022-11-29T09:34:37.616Z,169.00
2022-11-29T09:35:37.511Z,175.00
2022-11-29T09:36:37.540Z,178.00
2022-11-29T09:37:37.527Z,177.00
2022-11-29T09:38:38.418Z,179.00
2022-11-29T09:39:37.522Z,185.00
2022-11-29T09:40:37.482Z,187.00
2022-11-29T09:41:37.522Z,191.00
2022-11-29T09:42:37.474Z,200.00
2022-11-29T09:43:37.464Z,198.00
2022-11-29T09:44:37.449Z,197.00
2022-11-29T09:45:38.474Z,194.00
2022-11-29T09:46:37.436Z,190.00
2022-11-29T09:47:40.764Z,204.00
2022-11-29T09:48:37.395Z,210.00
2022-11-29T09:49:37.472Z,218.00
2022-11-29T09:50:37.431Z,217.00
2022-11-29T09:51:41.226Z,222.00
2022-11-29T09:52:37.496Z,220.00
2022-11-29T09:53:37.419Z,212.00
2022-11-29T09:54:37.392Z,212.00
2022-11-29T09:55:37.339Z,214.00
2022-11-29T09:56:37.378Z,216.00
2022-11-29T09:57:37.312Z,206.00
2022-11-29T09:58:37.312Z,203.00
2022-11-29T09:59:37.335Z,195.00
2022-11-29T10:00:37.841Z,185.00
2022-11-29T10:01:37.336Z,196.00
2022-11-29T10:02:37.289Z,191.00
2022-11-29T10:03:37.256Z,191.00
2022-11-29T10:04:37.512Z,196.00
2022-11-29T10:05:37.277Z,199.00
2022-11-29T10:06:37.255Z,198.00
2022-11-29T10:07:37.239Z,200.00
2022-11-29T10:08:37.227Z,194.00
2022-11-29T10:09:37.234Z,200.00
2022-11-29T10:10:37.169Z,198.00
2022-11-29T10:11:37.183Z,194.00
2022-11-29T10:12:37.181Z,190.00
2022-11-29T10:13:37.148Z,197.00
2022-11-29T10:14:37.878Z,204.00
2022-11-29T10:15:37.146Z,205.00
2022-11-29T10:16:37.195Z,210.00
2022-11-29T10:17:37.114Z,207.00
2022-11-29T10:18:37.139Z,207.00
2022-11-29T10:19:37.160Z,203.00
2022-11-29T10:20:40.645Z,208.00
2022-11-29T10:21:37.110Z,214.00
2022-11-29T10:22:37.115Z,225.00
2022-11-29T10:23:37.094Z,236.00
2022-11-29T10:24:37.743Z,248.00
2022-11-29T10:25:37.038Z,252.00
2022-11-29T10:26:37.085Z,264.00
2022-11-29T10:27:37.019Z,269.00
2022-11-29T10:28:37.067Z,265.00
2022-11-29T10:29:37.006Z,278.00
2022-11-29T10:30:37.050Z,269.00
2022-11-29T10:31:36.961Z,273.00
2022-11-29T10:32:36.978Z,284.00
2022-11-29T10:33:36.976Z,287.00
2022-11-29T10:34:36.994Z,287.00
2022-11-29T10:35:36.937Z,324.00
2022-11-29T10:36:36.979Z,328.00
2022-11-29T10:37:36.962Z,323.00
2022-11-29T10:38:36.919Z,323.00
2022-11-29T10:39:36.896Z,339.00
2022-11-29T10:40:37.146Z,356.00
2022-11-29T10:41:36.893Z,339.00
2022-11-29T10:42:36.845Z,322.00
2022-11-29T10:43:36.837Z,310.00
2022-11-29T10:44:36.859Z,306.00
2022-11-29T10:45:36.879Z,299.00
2022-11-29T10:46:36.841Z,296.00
2022-11-29T10:47:36.789Z,277.00
2022-11-29T10:48:36.834Z,271.00
2022-11-29T10:49:37.082Z,259.00
2022-11-29T10:50:37.544Z,253.00
2022-11-29T10:51:36.801Z,244.00
2022-11-29T10:52:36.827Z,239.00
2022-11-29T10:53:36.810Z,239.00
2022-11-29T10:54:36.735Z,249.00
2022-11-29T10:55:36.727Z,244.00
2022-11-29T10:56:36.879Z,241.00
2022-11-29T10:57:36.758Z,238.00
2022-11-29T10:58:36.879Z,244.00
2022-11-29T10:59:36.684Z,235.00
2022-11-29T11:00:36.672Z,227.00
2022-11-29T11:01:37.069Z,233.00
2022-11-29T11:02:36.732Z,220.00
2022-11-29T11:03:36.638Z,209.00
2022-11-29T11:04:36.675Z,196.00
2022-11-29T11:05:36.658Z,189.00
2022-11-29T11:06:36.610Z,187.00
2022-11-29T11:07:36.653Z,194.00
2022-11-29T11:08:36.618Z,199.00
2022-11-29T11:09:36.608Z,192.00
2022-11-29T11:10:36.564Z,187.00
2022-11-29T11:11:36.561Z,184.00
2022-11-29T11:12:36.683Z,193.00
2022-11-29T11:13:36.595Z,202.00
2022-11-29T11:14:36.538Z,211.00
2022-11-29T11:15:36.611Z,227.00
2022-11-29T11:16:37.715Z,226.00
2022-11-29T11:17:36.717Z,222.00
2022-11-29T11:18:36.721Z,226.00
2022-11-29T11:19:36.559Z,222.00
2022-11-29T11:20:36.507Z,234.00
2022-11-29T11:21:36.814Z,233.00
2022-11-29T11:22:36.500Z,243.00
2022-11-29T11:23:42.363Z,256.00
2022-11-29T11:24:36.688Z,277.00
2022-11-29T11:25:36.496Z,298.00
2022-11-29T11:26:36.578Z,319.00
2022-11-29T11:27:36.455Z,310.00
2022-11-29T11:28:36.416Z,310.00
2022-11-29T11:29:36.480Z,306.00
2022-11-29T11:30:36.467Z,308.00
2022-11-29T11:31:36.388Z,299.00
2022-11-29T11:32:36.999Z,297.00
2022-11-29T11:33:36.434Z,297.00
2022-11-29T11:34:36.371Z,321.00
2022-11-29T11:35:36.335Z,342.00
2022-11-29T11:36:36.311Z,338.00
2022-11-29T11:37:36.438Z,334.00
2022-11-29T11:38:36.287Z,319.00
2022-11-29T11:39:36.430Z,299.00
2022-11-29T11:40:36.315Z,279.00
2022-11-29T11:41:36.265Z,272.00
2022-11-29T11:42:36.289Z,270.00
2022-11-29T11:43:36.290Z,283.00
2022-11-29T11:44:51.721Z,294.00
2022-11-29T11:45:36.264Z,297.00
2022-11-29T11:46:36.233Z,295.00
2022-11-29T11:47:36.195Z,302.00
2022-11-29T11:48:36.233Z,333.00
2022-11-29T11:49:36.180Z,319.00
2022-11-29T11:50:36.203Z,285.00
2022-11-29T11:51:36.165Z,288.00
2022-11-29T11:52:40.190Z,306.00
2022-11-29T11:53:36.153Z,354.00
2022-11-29T11:54:36.121Z,379.00
2022-11-29T11:55:36.143Z,349.00
2022-11-29T11:56:36.120Z,355.00
2022-11-29T11:57:36.096Z,379.00
2022-11-29T11:58:36.094Z,367.00
2022-11-29T11:59:36.193Z,357.00
2022-11-29T12:01:02.278Z,344.00
2022-11-29T12:01:36.106Z,359.00
2022-11-29T12:02:36.244Z,371.00
2022-11-29T12:03:36.116Z,367.00
2022-11-29T12:04:36.089Z,347.00
2022-11-29T12:05:36.055Z,323.00
2022-11-29T12:06:36.037Z,340.00
2022-11-29T12:08:06.270Z,334.00
2022-11-29T12:08:36.161Z,327.00
2022-11-29T12:09:36.052Z,326.00
2022-11-29T12:10:35.962Z,301.00
2022-11-29T12:11:36.077Z,296.00
2022-11-29T12:12:35.964Z,300.00
2022-11-29T12:13:35.971Z,294.00
2022-11-29T12:14:37.894Z,305.00
2022-11-29T12:15:36.111Z,309.00
2022-11-29T12:16:35.920Z,298.00
2022-11-29T12:17:35.896Z,281.00
2022-11-29T12:18:35.931Z,270.00
2022-11-29T12:19:35.992Z,273.00
2022-11-29T12:20:35.897Z,282.00
2022-11-29T12:21:35.919Z,285.00
2022-11-29T12:22:35.902Z,279.00
2022-11-29T12:23:35.909Z,272.00
2022-11-29T12:24:35.895Z,268.00
2022-11-29T12:25:35.871Z,260.00
2022-11-29T12:26:56.364Z,254.00
2022-11-29T12:27:35.833Z,254.00
2022-11-29T12:28:35.774Z,252.00
2022-11-29T12:29:35.813Z,257.00
2022-11-29T12:30:35.785Z,258.00
2022-11-29T12:31:35.886Z,251.00
2022-11-29T12:32:35.810Z,236.00
2022-11-29T12:33:35.764Z,233.00
2022-11-29T12:34:35.797Z,237.00
2022-11-29T12:35:35.737Z,243.00
2022-11-29T12:36:35.971Z,246.00
2022-11-29T12:37:35.731Z,256.00
2022-11-29T12:38:35.681Z,261.00
2022-11-29T12:39:35.791Z,256.00
2022-11-29T12:40:35.774Z,241.00
2022-11-29T12:41:35.663Z,234.00
2022-11-29T12:42:35.767Z,226.00
2022-11-29T12:43:35.717Z,218.00
2022-11-29T12:44:35.635Z,218.00
2022-11-29T12:45:35.681Z,221.00
2022-11-29T12:46:35.672Z,226.00
2022-11-29T12:47:36.719Z,219.00
2022-11-29T12:48:35.605Z,210.00
2022-11-29T12:49:35.688Z,220.00
2022-11-29T12:50:35.613Z,212.00
2022-11-29T12:51:35.603Z,216.00
2022-11-29T12:52:35.552Z,216.00
2022-11-29T12:53:35.576Z,223.00
2022-11-29T12:54:35.516Z,237.00
2022-11-29T12:55:35.524Z,238.00
2022-11-29T12:56:35.507Z,220.00
2022-11-29T12:57:35.511Z,208.00